sensor_id;sensor_type;location;lat;lon;timestamp;P1;durP1;ratioP1;P2;durP2;ratioP2
39078;SDS011;24829;49.208;12.080;2022-07-09T00:01:07;9.48;;;2.38;;
39078;SDS011;24829;49.208;12.080;2022-07-09T00:03:33;7.80;;;2.45;;
39078;SDS011;24829;49.208;12.080;2022-07-09T00:05:58;9.02;;;2.55;;
39078;SDS011;24829;49.208;12.080;2022-07-09T00:08:24;14.57;;;5.93;;
39078;SDS011;24829;49.208;12.080;2022-07-09T00:10:49;10.18;;;3.95;;
39078;SDS011;24829;49.208;12.080;2022-07-09T00:13:15;19.00;;;6.72;;
39078;SDS011;24829;49.208;12.080;2022-07-09T00:15:40;6.85;;;2.47;;
39078;SDS011;24829;49.208;12.080;2022-07-09T00:18:07;4.80;;;1.35;;
39078;SDS011;24829;49.208;12.080;2022-07-09T00:20:33;9.48;;;1.55;;
39078;SDS011;24829;49.208;12.080;2022-07-09T00:22:58;10.68;;;2.45;;
39078;SDS011;24829;49.208;12.080;2022-07-09T00:25:24;11.45;;;2.63;;
39078;SDS011;24829;49.208;12.080;2022-07-09T00:27:50;5.85;;;2.17;;
39078;SDS011;24829;49.208;12.080;2022-07-09T00:30:15;4.00;;;1.35;;
39078;SDS011;24829;49.208;12.080;2022-07-09T00:32:41;5.03;;;1.10;;
39078;SDS011;24829;49.208;12.080;2022-07-09T00:35:06;4.82;;;1.33;;
39078;SDS011;24829;49.208;12.080;2022-07-09T00:37:32;2.72;;;1.00;;
39078;SDS011;24829;49.208;12.080;2022-07-09T00:39:58;5.47;;;1.10;;
39078;SDS011;24829;49.208;12.080;2022-07-09T00:42:23;3.20;;;1.13;;
39078;SDS011;24829;49.208;12.080;2022-07-09T00:44:50;4.53;;;1.50;;
39078;SDS011;24829;49.208;12.080;2022-07-09T00:47:16;3.75;;;0.95;;
39078;SDS011;24829;49.208;12.080;2022-07-09T00:49:41;6.05;;;1.42;;
39078;SDS011;24829;49.208;12.080;2022-07-09T00:52:09;4.18;;;1.10;;
39078;SDS011;24829;49.208;12.080;2022-07-09T00:54:37;4.65;;;1.02;;
39078;SDS011;24829;49.208;12.080;2022-07-09T00:57:06;2.47;;;1.17;;
39078;SDS011;24829;49.208;12.080;2022-07-09T00:59:33;4.93;;;1.40;;
39078;SDS011;24829;49.208;12.080;2022-07-09T01:02:00;5.65;;;1.70;;
39078;SDS011;24829;49.208;12.080;2022-07-09T01:04:26;10.52;;;5.07;;
39078;SDS011;24829;49.208;12.080;2022-07-09T01:06:52;7.60;;;4.43;;
39078;SDS011;24829;49.208;12.080;2022-07-09T01:09:18;7.68;;;2.45;;
39078;SDS011;24829;49.208;12.080;2022-07-09T01:11:43;8.48;;;3.55;;
39078;SDS011;24829;49.208;12.080;2022-07-09T01:14:09;10.48;;;3.95;;
39078;SDS011;24829;49.208;12.080;2022-07-09T01:16:35;7.25;;;2.40;;
39078;SDS011;24829;49.208;12.080;2022-07-09T01:19:02;4.20;;;1.70;;
39078;SDS011;24829;49.208;12.080;2022-07-09T01:21:29;9.18;;;4.22;;
39078;SDS011;24829;49.208;12.080;2022-07-09T01:23:54;6.93;;;2.70;;
39078;SDS011;24829;49.208;12.080;2022-07-09T01:26:21;4.68;;;1.80;;
39078;SDS011;24829;49.208;12.080;2022-07-09T01:28:48;2.88;;;1.50;;
39078;SDS011;24829;49.208;12.080;2022-07-09T01:31:13;2.17;;;1.73;;
39078;SDS011;24829;49.208;12.080;2022-07-09T01:33:39;3.28;;;1.50;;
39078;SDS011;24829;49.208;12.080;2022-07-09T01:36:05;4.35;;;1.70;;
39078;SDS011;24829;49.208;12.080;2022-07-09T01:38:34;3.97;;;1.45;;
39078;SDS011;24829;49.208;12.080;2022-07-09T01:41:01;2.03;;;1.42;;
39078;SDS011;24829;49.208;12.080;2022-07-09T01:43:26;4.28;;;1.65;;
39078;SDS011;24829;49.208;12.080;2022-07-09T01:45:52;4.40;;;1.83;;
39078;SDS011;24829;49.208;12.080;2022-07-09T01:48:18;3.95;;;1.60;;
39078;SDS011;24829;49.208;12.080;2022-07-09T01:50:43;4.07;;;1.92;;
39078;SDS011;24829;49.208;12.080;2022-07-09T01:53:09;4.35;;;1.55;;
39078;SDS011;24829;49.208;12.080;2022-07-09T01:55:35;4.32;;;1.65;;
39078;SDS011;24829;49.208;12.080;2022-07-09T01:58:01;4.32;;;1.73;;
39078;SDS011;24829;49.208;12.080;2022-07-09T02:00:27;5.97;;;1.50;;
39078;SDS011;24829;49.208;12.080;2022-07-09T02:02:54;4.03;;;1.35;;
39078;SDS011;24829;49.208;12.080;2022-07-09T02:05:20;2.05;;;1.20;;
39078;SDS011;24829;49.208;12.080;2022-07-09T02:07:46;3.67;;;1.55;;
39078;SDS011;24829;49.208;12.080;2022-07-09T02:10:12;3.50;;;1.40;;
39078;SDS011;24829;49.208;12.080;2022-07-09T02:12:38;2.90;;;1.40;;
39078;SDS011;24829;49.208;12.080;2022-07-09T02:17:32;5.63;;;1.27;;
39078;SDS011;24829;49.208;12.080;2022-07-09T02:19:58;1.92;;;1.35;;
39078;SDS011;24829;49.208;12.080;2022-07-09T02:22:23;4.20;;;1.42;;
39078;SDS011;24829;49.208;12.080;2022-07-09T02:24:49;4.95;;;1.70;;
39078;SDS011;24829;49.208;12.080;2022-07-09T02:27:14;4.63;;;1.77;;
39078;SDS011;24829;49.208;12.080;2022-07-09T02:29:40;2.97;;;1.55;;
39078;SDS011;24829;49.208;12.080;2022-07-09T02:32:06;3.45;;;1.50;;
39078;SDS011;24829;49.208;12.080;2022-07-09T02:34:31;6.45;;;1.85;;
39078;SDS011;24829;49.208;12.080;2022-07-09T02:36:57;4.93;;;1.77;;
39078;SDS011;24829;49.208;12.080;2022-07-09T02:39:23;2.42;;;1.40;;
39078;SDS011;24829;49.208;12.080;2022-07-09T02:41:49;4.15;;;1.98;;
39078;SDS011;24829;49.208;12.080;2022-07-09T02:44:15;5.90;;;1.73;;
39078;SDS011;24829;49.208;12.080;2022-07-09T02:46:40;3.70;;;1.25;;
39078;SDS011;24829;49.208;12.080;2022-07-09T02:49:06;3.30;;;1.40;;
39078;SDS011;24829;49.208;12.080;2022-07-09T02:51:31;8.32;;;2.13;;
39078;SDS011;24829;49.208;12.080;2022-07-09T02:53:57;6.55;;;1.58;;
39078;SDS011;24829;49.208;12.080;2022-07-09T02:56:22;5.30;;;1.75;;
39078;SDS011;24829;49.208;12.080;2022-07-09T02:58:48;3.20;;;1.92;;
39078;SDS011;24829;49.208;12.080;2022-07-09T03:01:13;5.63;;;1.85;;
39078;SDS011;24829;49.208;12.080;2022-07-09T03:03:39;7.63;;;2.17;;
39078;SDS011;24829;49.208;12.080;2022-07-09T03:06:05;3.30;;;1.40;;
39078;SDS011;24829;49.208;12.080;2022-07-09T03:08:33;3.92;;;1.77;;
39078;SDS011;24829;49.208;12.080;2022-07-09T03:10:58;3.58;;;1.80;;
39078;SDS011;24829;49.208;12.080;2022-07-09T03:13:24;5.15;;;2.00;;
39078;SDS011;24829;49.208;12.080;2022-07-09T03:15:50;6.05;;;1.95;;
39078;SDS011;24829;49.208;12.080;2022-07-09T03:18:16;3.20;;;1.50;;
39078;SDS011;24829;49.208;12.080;2022-07-09T03:20:41;7.38;;;1.83;;
39078;SDS011;24829;49.208;12.080;2022-07-09T03:23:07;6.13;;;1.60;;
39078;SDS011;24829;49.208;12.080;2022-07-09T03:25:32;7.07;;;2.28;;
39078;SDS011;24829;49.208;12.080;2022-07-09T03:27:58;8.68;;;2.28;;
39078;SDS011;24829;49.208;12.080;2022-07-09T03:30:23;5.57;;;1.55;;
39078;SDS011;24829;49.208;12.080;2022-07-09T03:32:50;4.45;;;1.60;;
39078;SDS011;24829;49.208;12.080;2022-07-09T03:35:16;6.43;;;1.80;;
39078;SDS011;24829;49.208;12.080;2022-07-09T03:37:41;3.17;;;1.63;;
39078;SDS011;24829;49.208;12.080;2022-07-09T03:40:07;6.45;;;2.15;;
39078;SDS011;24829;49.208;12.080;2022-07-09T03:42:33;5.72;;;1.83;;
39078;SDS011;24829;49.208;12.080;2022-07-09T03:44:59;2.75;;;1.63;;
39078;SDS011;24829;49.208;12.080;2022-07-09T03:47:25;3.95;;;1.35;;
39078;SDS011;24829;49.208;12.080;2022-07-09T03:49:50;5.40;;;1.63;;
39078;SDS011;24829;49.208;12.080;2022-07-09T03:52:16;6.53;;;2.00;;
39078;SDS011;24829;49.208;12.080;2022-07-09T03:54:42;5.32;;;1.75;;
39078;SDS011;24829;49.208;12.080;2022-07-09T03:57:08;4.68;;;1.77;;
39078;SDS011;24829;49.208;12.080;2022-07-09T03:59:34;5.15;;;1.63;;
39078;SDS011;24829;49.208;12.080;2022-07-09T04:02:00;5.65;;;1.52;;
39078;SDS011;24829;49.208;12.080;2022-07-09T04:04:25;2.53;;;1.85;;
39078;SDS011;24829;49.208;12.080;2022-07-09T04:06:51;5.57;;;1.63;;
39078;SDS011;24829;49.208;12.080;2022-07-09T04:09:17;13.95;;;2.15;;
39078;SDS011;24829;49.208;12.080;2022-07-09T04:11:42;6.90;;;1.55;;
39078;SDS011;24829;49.208;12.080;2022-07-09T04:14:08;5.28;;;1.30;;
39078;SDS011;24829;49.208;12.080;2022-07-09T04:16:33;6.05;;;1.65;;
39078;SDS011;24829;49.208;12.080;2022-07-09T04:18:59;8.77;;;1.73;;
39078;SDS011;24829;49.208;12.080;2022-07-09T04:21:24;4.95;;;1.73;;
39078;SDS011;24829;49.208;12.080;2022-07-09T04:23:50;3.70;;;1.60;;
39078;SDS011;24829;49.208;12.080;2022-07-09T04:26:16;3.53;;;1.60;;
39078;SDS011;24829;49.208;12.080;2022-07-09T04:28:46;3.70;;;1.38;;
39078;SDS011;24829;49.208;12.080;2022-07-09T04:31:11;5.15;;;2.03;;
39078;SDS011;24829;49.208;12.080;2022-07-09T04:33:37;3.65;;;1.88;;
39078;SDS011;24829;49.208;12.080;2022-07-09T04:36:03;4.63;;;2.17;;
39078;SDS011;24829;49.208;12.080;2022-07-09T04:38:29;6.18;;;2.30;;
39078;SDS011;24829;49.208;12.080;2022-07-09T04:40:55;5.40;;;2.35;;
39078;SDS011;24829;49.208;12.080;2022-07-09T04:43:21;7.72;;;2.50;;
39078;SDS011;24829;49.208;12.080;2022-07-09T04:45:47;10.65;;;2.50;;
39078;SDS011;24829;49.208;12.080;2022-07-09T04:48:12;3.55;;;1.65;;
39078;SDS011;24829;49.208;12.080;2022-07-09T04:50:38;8.60;;;2.38;;
39078;SDS011;24829;49.208;12.080;2022-07-09T04:53:03;3.55;;;1.65;;
39078;SDS011;24829;49.208;12.080;2022-07-09T04:55:29;5.22;;;2.33;;
39078;SDS011;24829;49.208;12.080;2022-07-09T04:57:55;4.85;;;2.10;;
39078;SDS011;24829;49.208;12.080;2022-07-09T05:00:21;4.90;;;2.20;;
39078;SDS011;24829;49.208;12.080;2022-07-09T05:02:46;3.80;;;2.17;;
39078;SDS011;24829;49.208;12.080;2022-07-09T05:05:12;9.38;;;2.58;;
39078;SDS011;24829;49.208;12.080;2022-07-09T05:07:38;8.13;;;2.67;;
39078;SDS011;24829;49.208;12.080;2022-07-09T05:10:06;6.13;;;2.20;;
39078;SDS011;24829;49.208;12.080;2022-07-09T05:12:31;6.32;;;2.72;;
39078;SDS011;24829;49.208;12.080;2022-07-09T05:14:57;6.93;;;2.03;;
39078;SDS011;24829;49.208;12.080;2022-07-09T05:17:23;5.40;;;2.30;;
39078;SDS011;24829;49.208;12.080;2022-07-09T05:19:49;4.07;;;2.20;;
39078;SDS011;24829;49.208;12.080;2022-07-09T05:22:15;4.07;;;1.88;;
39078;SDS011;24829;49.208;12.080;2022-07-09T05:24:41;3.70;;;1.75;;
39078;SDS011;24829;49.208;12.080;2022-07-09T05:27:07;6.32;;;1.95;;
39078;SDS011;24829;49.208;12.080;2022-07-09T05:29:34;5.10;;;1.77;;
39078;SDS011;24829;49.208;12.080;2022-07-09T05:32:00;5.97;;;2.13;;
39078;SDS011;24829;49.208;12.080;2022-07-09T05:34:25;6.10;;;2.58;;
39078;SDS011;24829;49.208;12.080;2022-07-09T05:36:51;4.47;;;1.80;;
39078;SDS011;24829;49.208;12.080;2022-07-09T05:39:17;5.38;;;2.20;;
39078;SDS011;24829;49.208;12.080;2022-07-09T05:41:43;4.50;;;1.70;;
39078;SDS011;24829;49.208;12.080;2022-07-09T05:44:09;8.80;;;2.20;;
39078;SDS011;24829;49.208;12.080;2022-07-09T05:46:34;4.03;;;1.45;;
39078;SDS011;24829;49.208;12.080;2022-07-09T05:49:00;3.33;;;1.75;;
39078;SDS011;24829;49.208;12.080;2022-07-09T05:51:27;8.10;;;1.70;;
39078;SDS011;24829;49.208;12.080;2022-07-09T05:53:53;3.65;;;1.30;;
39078;SDS011;24829;49.208;12.080;2022-07-09T05:56:18;4.45;;;1.50;;
39078;SDS011;24829;49.208;12.080;2022-07-09T05:58:44;2.33;;;1.38;;
39078;SDS011;24829;49.208;12.080;2022-07-09T06:01:09;2.78;;;1.65;;
39078;SDS011;24829;49.208;12.080;2022-07-09T06:03:36;3.90;;;2.05;;
39078;SDS011;24829;49.208;12.080;2022-07-09T06:06:02;5.07;;;1.60;;
39078;SDS011;24829;49.208;12.080;2022-07-09T06:08:27;4.53;;;1.13;;
39078;SDS011;24829;49.208;12.080;2022-07-09T06:10:53;6.78;;;1.77;;
39078;SDS011;24829;49.208;12.080;2022-07-09T06:13:18;5.25;;;1.30;;
39078;SDS011;24829;49.208;12.080;2022-07-09T06:15:44;6.00;;;1.20;;
39078;SDS011;24829;49.208;12.080;2022-07-09T06:18:09;6.35;;;1.55;;
39078;SDS011;24829;49.208;12.080;2022-07-09T06:20:35;4.32;;;0.95;;
39078;SDS011;24829;49.208;12.080;2022-07-09T06:23:00;1.98;;;1.27;;
39078;SDS011;24829;49.208;12.080;2022-07-09T06:25:26;2.25;;;0.75;;
39078;SDS011;24829;49.208;12.080;2022-07-09T06:27:51;3.05;;;0.80;;
39078;SDS011;24829;49.208;12.080;2022-07-09T06:30:17;3.30;;;0.90;;
39078;SDS011;24829;49.208;12.080;2022-07-09T06:32:43;2.97;;;0.90;;
39078;SDS011;24829;49.208;12.080;2022-07-09T06:35:08;2.42;;;0.75;;
39078;SDS011;24829;49.208;12.080;2022-07-09T06:37:34;5.13;;;1.42;;
39078;SDS011;24829;49.208;12.080;2022-07-09T06:39:59;2.65;;;0.80;;
39078;SDS011;24829;49.208;12.080;2022-07-09T06:42:25;3.75;;;1.13;;
39078;SDS011;24829;49.208;12.080;2022-07-09T06:44:51;1.30;;;0.52;;
39078;SDS011;24829;49.208;12.080;2022-07-09T06:47:16;2.03;;;0.60;;
39078;SDS011;24829;49.208;12.080;2022-07-09T06:49:42;4.55;;;0.85;;
39078;SDS011;24829;49.208;12.080;2022-07-09T06:52:08;4.10;;;1.40;;
39078;SDS011;24829;49.208;12.080;2022-07-09T06:54:34;1.77;;;0.52;;
39078;SDS011;24829;49.208;12.080;2022-07-09T06:57:00;3.25;;;1.00;;
39078;SDS011;24829;49.208;12.080;2022-07-09T06:59:26;3.72;;;0.55;;
39078;SDS011;24829;49.208;12.080;2022-07-09T07:01:52;2.10;;;0.50;;
39078;SDS011;24829;49.208;12.080;2022-07-09T07:04:17;1.90;;;0.60;;
39078;SDS011;24829;49.208;12.080;2022-07-09T07:06:45;2.17;;;0.63;;
39078;SDS011;24829;49.208;12.080;2022-07-09T07:09:13;1.88;;;0.65;;
39078;SDS011;24829;49.208;12.080;2022-07-09T07:11:40;2.60;;;0.82;;
39078;SDS011;24829;49.208;12.080;2022-07-09T07:14:06;2.92;;;0.60;;
39078;SDS011;24829;49.208;12.080;2022-07-09T07:16:31;1.77;;;0.57;;
39078;SDS011;24829;49.208;12.080;2022-07-09T07:18:57;3.97;;;0.60;;
39078;SDS011;24829;49.208;12.080;2022-07-09T07:21:22;2.35;;;0.50;;
39078;SDS011;24829;49.208;12.080;2022-07-09T07:23:48;5.72;;;0.85;;
39078;SDS011;24829;49.208;12.080;2022-07-09T07:26:13;3.05;;;0.85;;
39078;SDS011;24829;49.208;12.080;2022-07-09T07:28:39;2.33;;;0.68;;
39078;SDS011;24829;49.208;12.080;2022-07-09T07:31:04;1.75;;;0.60;;
39078;SDS011;24829;49.208;12.080;2022-07-09T07:33:30;1.30;;;0.50;;
39078;SDS011;24829;49.208;12.080;2022-07-09T07:35:55;1.58;;;0.50;;
39078;SDS011;24829;49.208;12.080;2022-07-09T07:38:21;0.90;;;0.50;;
39078;SDS011;24829;49.208;12.080;2022-07-09T07:40:47;1.20;;;0.40;;
39078;SDS011;24829;49.208;12.080;2022-07-09T07:43:12;1.38;;;0.40;;
39078;SDS011;24829;49.208;12.080;2022-07-09T07:45:38;1.20;;;0.60;;
39078;SDS011;24829;49.208;12.080;2022-07-09T07:48:04;3.40;;;0.40;;
39078;SDS011;24829;49.208;12.080;2022-07-09T07:50:30;2.45;;;0.40;;
39078;SDS011;24829;49.208;12.080;2022-07-09T07:52:57;1.98;;;0.40;;
39078;SDS011;24829;49.208;12.080;2022-07-09T07:55:23;1.73;;;0.40;;
39078;SDS011;24829;49.208;12.080;2022-07-09T07:57:48;2.30;;;0.50;;
39078;SDS011;24829;49.208;12.080;2022-07-09T08:00:14;0.77;;;0.40;;
39078;SDS011;24829;49.208;12.080;2022-07-09T08:02:39;4.38;;;0.65;;
39078;SDS011;24829;49.208;12.080;2022-07-09T08:05:05;1.95;;;0.50;;
39078;SDS011;24829;49.208;12.080;2022-07-09T08:07:31;1.88;;;0.50;;
39078;SDS011;24829;49.208;12.080;2022-07-09T08:09:57;2.10;;;0.60;;
39078;SDS011;24829;49.208;12.080;2022-07-09T08:12:23;1.83;;;0.50;;
39078;SDS011;24829;49.208;12.080;2022-07-09T08:14:48;1.25;;;0.60;;
39078;SDS011;24829;49.208;12.080;2022-07-09T08:17:14;3.25;;;0.60;;
39078;SDS011;24829;49.208;12.080;2022-07-09T08:19:39;2.25;;;0.75;;
39078;SDS011;24829;49.208;12.080;2022-07-09T08:22:05;2.78;;;0.70;;
39078;SDS011;24829;49.208;12.080;2022-07-09T08:24:30;2.03;;;0.63;;
39078;SDS011;24829;49.208;12.080;2022-07-09T08:26:56;6.15;;;0.93;;
39078;SDS011;24829;49.208;12.080;2022-07-09T08:29:23;1.42;;;0.63;;
39078;SDS011;24829;49.208;12.080;2022-07-09T08:31:49;4.85;;;0.63;;
39078;SDS011;24829;49.208;12.080;2022-07-09T08:34:15;2.95;;;0.75;;
39078;SDS011;24829;49.208;12.080;2022-07-09T08:36:41;2.22;;;0.60;;
39078;SDS011;24829;49.208;12.080;2022-07-09T08:39:06;3.05;;;0.70;;
39078;SDS011;24829;49.208;12.080;2022-07-09T08:41:32;4.78;;;1.00;;
39078;SDS011;24829;49.208;12.080;2022-07-09T08:43:57;2.90;;;0.60;;
39078;SDS011;24829;49.208;12.080;2022-07-09T08:46:23;7.25;;;0.85;;
39078;SDS011;24829;49.208;12.080;2022-07-09T08:48:49;1.95;;;0.60;;
39078;SDS011;24829;49.208;12.080;2022-07-09T08:51:15;1.98;;;0.82;;
39078;SDS011;24829;49.208;12.080;2022-07-09T08:53:43;3.10;;;0.70;;
39078;SDS011;24829;49.208;12.080;2022-07-09T08:56:09;4.30;;;0.80;;
39078;SDS011;24829;49.208;12.080;2022-07-09T08:58:37;2.15;;;1.00;;
39078;SDS011;24829;49.208;12.080;2022-07-09T09:01:03;3.28;;;0.82;;
39078;SDS011;24829;49.208;12.080;2022-07-09T09:03:30;2.67;;;1.02;;
39078;SDS011;24829;49.208;12.080;2022-07-09T09:06:14;1.88;;;0.77;;
39078;SDS011;24829;49.208;12.080;2022-07-09T09:08:43;3.97;;;0.80;;
39078;SDS011;24829;49.208;12.080;2022-07-09T09:11:14;2.65;;;0.93;;
39078;SDS011;24829;49.208;12.080;2022-07-09T09:13:44;3.05;;;0.75;;
39078;SDS011;24829;49.208;12.080;2022-07-09T09:16:12;1.98;;;0.65;;
39078;SDS011;24829;49.208;12.080;2022-07-09T09:18:51;2.63;;;0.80;;
39078;SDS011;24829;49.208;12.080;2022-07-09T09:21:21;3.00;;;0.88;;
39078;SDS011;24829;49.208;12.080;2022-07-09T09:23:49;3.47;;;0.88;;
39078;SDS011;24829;49.208;12.080;2022-07-09T09:26:20;3.97;;;1.02;;
39078;SDS011;24829;49.208;12.080;2022-07-09T09:28:53;3.42;;;0.70;;
39078;SDS011;24829;49.208;12.080;2022-07-09T09:31:24;4.55;;;1.05;;
39078;SDS011;24829;49.208;12.080;2022-07-09T09:33:52;3.22;;;0.80;;
39078;SDS011;24829;49.208;12.080;2022-07-09T09:36:29;1.90;;;0.90;;
39078;SDS011;24829;49.208;12.080;2022-07-09T09:41:35;1.88;;;0.80;;
39078;SDS011;24829;49.208;12.080;2022-07-09T09:44:12;2.05;;;0.50;;
39078;SDS011;24829;49.208;12.080;2022-07-09T09:46:39;5.72;;;0.70;;
39078;SDS011;24829;49.208;12.080;2022-07-09T09:49:07;3.10;;;0.60;;
39078;SDS011;24829;49.208;12.080;2022-07-09T09:51:37;2.88;;;0.95;;
39078;SDS011;24829;49.208;12.080;2022-07-09T09:54:06;1.67;;;0.70;;
39078;SDS011;24829;49.208;12.080;2022-07-09T09:56:34;1.98;;;0.80;;
39078;SDS011;24829;49.208;12.080;2022-07-09T09:59:00;3.35;;;0.98;;
39078;SDS011;24829;49.208;12.080;2022-07-09T10:01:27;1.20;;;0.70;;
39078;SDS011;24829;49.208;12.080;2022-07-09T10:03:53;2.80;;;0.80;;
39078;SDS011;24829;49.208;12.080;2022-07-09T10:06:20;3.92;;;0.70;;
39078;SDS011;24829;49.208;12.080;2022-07-09T10:08:46;2.08;;;0.60;;
39078;SDS011;24829;49.208;12.080;2022-07-09T10:11:11;2.25;;;0.82;;
39078;SDS011;24829;49.208;12.080;2022-07-09T10:13:37;2.95;;;0.90;;
39078;SDS011;24829;49.208;12.080;2022-07-09T10:16:13;2.00;;;0.75;;
39078;SDS011;24829;49.208;12.080;2022-07-09T10:18:49;1.63;;;0.90;;
39078;SDS011;24829;49.208;12.080;2022-07-09T10:21:15;1.98;;;0.82;;
39078;SDS011;24829;49.208;12.080;2022-07-09T10:23:48;4.18;;;0.70;;
39078;SDS011;24829;49.208;12.080;2022-07-09T10:26:15;2.80;;;0.70;;
39078;SDS011;24829;49.208;12.080;2022-07-09T10:28:41;3.40;;;0.73;;
39078;SDS011;24829;49.208;12.080;2022-07-09T10:31:07;1.35;;;0.60;;
39078;SDS011;24829;49.208;12.080;2022-07-09T10:33:33;3.70;;;0.65;;
39078;SDS011;24829;49.208;12.080;2022-07-09T10:36:09;2.17;;;0.90;;
39078;SDS011;24829;49.208;12.080;2022-07-09T10:38:36;2.80;;;0.77;;
39078;SDS011;24829;49.208;12.080;2022-07-09T10:41:04;6.47;;;1.08;;
39078;SDS011;24829;49.208;12.080;2022-07-09T10:43:43;3.85;;;1.10;;
39078;SDS011;24829;49.208;12.080;2022-07-09T10:46:14;3.60;;;0.80;;
39078;SDS011;24829;49.208;12.080;2022-07-09T10:48:40;6.00;;;0.80;;
39078;SDS011;24829;49.208;12.080;2022-07-09T10:51:06;1.98;;;0.90;;
39078;SDS011;24829;49.208;12.080;2022-07-09T10:53:32;2.78;;;0.80;;
39078;SDS011;24829;49.208;12.080;2022-07-09T10:55:58;2.95;;;1.17;;
39078;SDS011;24829;49.208;12.080;2022-07-09T10:58:24;1.73;;;0.70;;
39078;SDS011;24829;49.208;12.080;2022-07-09T11:00:54;2.00;;;0.77;;
39078;SDS011;24829;49.208;12.080;2022-07-09T11:03:24;2.28;;;0.70;;
39078;SDS011;24829;49.208;12.080;2022-07-09T11:05:54;1.25;;;0.70;;
39078;SDS011;24829;49.208;12.080;2022-07-09T11:08:20;2.60;;;1.00;;
39078;SDS011;24829;49.208;12.080;2022-07-09T11:10:46;4.30;;;0.80;;
39078;SDS011;24829;49.208;12.080;2022-07-09T11:13:12;2.95;;;0.70;;
39078;SDS011;24829;49.208;12.080;2022-07-09T11:15:38;3.15;;;0.90;;
39078;SDS011;24829;49.208;12.080;2022-07-09T11:20:31;1.75;;;0.70;;
39078;SDS011;24829;49.208;12.080;2022-07-09T11:23:01;1.73;;;0.60;;
39078;SDS011;24829;49.208;12.080;2022-07-09T11:25:27;1.88;;;0.70;;
39078;SDS011;24829;49.208;12.080;2022-07-09T11:27:56;3.28;;;0.70;;
39078;SDS011;24829;49.208;12.080;2022-07-09T11:30:23;1.92;;;0.75;;
39078;SDS011;24829;49.208;12.080;2022-07-09T11:32:50;2.30;;;0.80;;
39078;SDS011;24829;49.208;12.080;2022-07-09T11:35:32;3.22;;;0.70;;
39078;SDS011;24829;49.208;12.080;2022-07-09T11:38:08;2.10;;;0.55;;
39078;SDS011;24829;49.208;12.080;2022-07-09T11:40:33;1.98;;;0.70;;
39078;SDS011;24829;49.208;12.080;2022-07-09T11:42:59;1.85;;;0.60;;
39078;SDS011;24829;49.208;12.080;2022-07-09T11:45:25;1.70;;;0.70;;
39078;SDS011;24829;49.208;12.080;2022-07-09T11:48:01;1.70;;;0.63;;
39078;SDS011;24829;49.208;12.080;2022-07-09T11:50:31;3.00;;;0.75;;
39078;SDS011;24829;49.208;12.080;2022-07-09T11:52:58;1.90;;;0.73;;
39078;SDS011;24829;49.208;12.080;2022-07-09T11:55:30;2.53;;;0.55;;
39078;SDS011;24829;49.208;12.080;2022-07-09T11:58:02;3.95;;;0.70;;
39078;SDS011;24829;49.208;12.080;2022-07-09T12:00:34;3.17;;;0.90;;
39078;SDS011;24829;49.208;12.080;2022-07-09T12:03:04;1.75;;;0.60;;
39078;SDS011;24829;49.208;12.080;2022-07-09T12:05:31;3.35;;;1.02;;
39078;SDS011;24829;49.208;12.080;2022-07-09T12:08:07;2.58;;;0.90;;
39078;SDS011;24829;49.208;12.080;2022-07-09T12:10:34;5.97;;;1.25;;
39078;SDS011;24829;49.208;12.080;2022-07-09T12:13:01;3.97;;;1.25;;
39078;SDS011;24829;49.208;12.080;2022-07-09T12:15:28;6.15;;;3.00;;
39078;SDS011;24829;49.208;12.080;2022-07-09T12:17:55;5.03;;;3.83;;
39078;SDS011;24829;49.208;12.080;2022-07-09T12:20:22;7.07;;;2.17;;
39078;SDS011;24829;49.208;12.080;2022-07-09T12:22:49;1.55;;;1.00;;
39078;SDS011;24829;49.208;12.080;2022-07-09T12:25:15;3.08;;;1.20;;
39078;SDS011;24829;49.208;12.080;2022-07-09T12:27:41;4.18;;;1.85;;
39078;SDS011;24829;49.208;12.080;2022-07-09T12:30:07;6.50;;;4.03;;
39078;SDS011;24829;49.208;12.080;2022-07-09T12:32:33;4.15;;;2.03;;
39078;SDS011;24829;49.208;12.080;2022-07-09T12:34:59;8.48;;;1.52;;
39078;SDS011;24829;49.208;12.080;2022-07-09T12:37:25;5.03;;;1.95;;
39078;SDS011;24829;49.208;12.080;2022-07-09T12:39:51;2.45;;;1.33;;
39078;SDS011;24829;49.208;12.080;2022-07-09T12:42:18;5.35;;;1.13;;
39078;SDS011;24829;49.208;12.080;2022-07-09T12:44:45;2.42;;;0.95;;
39078;SDS011;24829;49.208;12.080;2022-07-09T12:47:10;5.03;;;0.95;;
39078;SDS011;24829;49.208;12.080;2022-07-09T12:49:36;4.35;;;1.58;;
39078;SDS011;24829;49.208;12.080;2022-07-09T12:52:02;2.40;;;1.00;;
39078;SDS011;24829;49.208;12.080;2022-07-09T12:54:27;6.85;;;1.40;;
39078;SDS011;24829;49.208;12.080;2022-07-09T12:56:53;3.38;;;1.05;;
39078;SDS011;24829;49.208;12.080;2022-07-09T12:59:20;3.63;;;0.90;;
39078;SDS011;24829;49.208;12.080;2022-07-09T13:01:46;3.40;;;0.88;;
39078;SDS011;24829;49.208;12.080;2022-07-09T13:04:11;2.05;;;0.82;;
39078;SDS011;24829;49.208;12.080;2022-07-09T13:06:37;3.03;;;0.80;;
39078;SDS011;24829;49.208;12.080;2022-07-09T13:09:04;5.10;;;0.88;;
39078;SDS011;24829;49.208;12.080;2022-07-09T13:11:32;3.55;;;0.55;;
39078;SDS011;24829;49.208;12.080;2022-07-09T13:13:57;3.13;;;0.80;;
39078;SDS011;24829;49.208;12.080;2022-07-09T13:16:23;3.80;;;0.90;;
39078;SDS011;24829;49.208;12.080;2022-07-09T13:18:49;4.82;;;0.80;;
39078;SDS011;24829;49.208;12.080;2022-07-09T13:21:16;1.77;;;0.75;;
39078;SDS011;24829;49.208;12.080;2022-07-09T13:23:42;2.42;;;0.75;;
39078;SDS011;24829;49.208;12.080;2022-07-09T13:26:08;5.47;;;1.30;;
39078;SDS011;24829;49.208;12.080;2022-07-09T13:28:34;3.95;;;0.90;;
39078;SDS011;24829;49.208;12.080;2022-07-09T13:30:59;1.73;;;0.77;;
39078;SDS011;24829;49.208;12.080;2022-07-09T13:33:25;3.25;;;0.70;;
39078;SDS011;24829;49.208;12.080;2022-07-09T13:35:50;2.55;;;0.90;;
39078;SDS011;24829;49.208;12.080;2022-07-09T13:38:16;3.78;;;0.70;;
39078;SDS011;24829;49.208;12.080;2022-07-09T13:40:41;3.45;;;0.95;;
39078;SDS011;24829;49.208;12.080;2022-07-09T13:43:07;1.38;;;0.77;;
39078;SDS011;24829;49.208;12.080;2022-07-09T13:45:32;6.03;;;1.02;;
39078;SDS011;24829;49.208;12.080;2022-07-09T13:47:58;2.60;;;0.75;;
39078;SDS011;24829;49.208;12.080;2022-07-09T13:50:23;3.42;;;1.25;;
39078;SDS011;24829;49.208;12.080;2022-07-09T13:52:49;4.25;;;0.70;;
39078;SDS011;24829;49.208;12.080;2022-07-09T13:55:15;0.82;;;0.50;;
39078;SDS011;24829;49.208;12.080;2022-07-09T13:57:41;2.50;;;0.80;;
39078;SDS011;24829;49.208;12.080;2022-07-09T14:00:07;1.65;;;0.77;;
39078;SDS011;24829;49.208;12.080;2022-07-09T14:02:33;1.83;;;0.70;;
39078;SDS011;24829;49.208;12.080;2022-07-09T14:05:01;2.38;;;0.95;;
39078;SDS011;24829;49.208;12.080;2022-07-09T14:07:27;4.78;;;1.45;;
39078;SDS011;24829;49.208;12.080;2022-07-09T14:09:53;6.03;;;1.63;;
39078;SDS011;24829;49.208;12.080;2022-07-09T14:12:19;3.67;;;1.00;;
39078;SDS011;24829;49.208;12.080;2022-07-09T14:14:45;3.97;;;1.15;;
39078;SDS011;24829;49.208;12.080;2022-07-09T14:17:11;6.25;;;1.00;;
39078;SDS011;24829;49.208;12.080;2022-07-09T14:19:36;2.25;;;1.00;;
39078;SDS011;24829;49.208;12.080;2022-07-09T14:22:02;1.73;;;0.90;;
39078;SDS011;24829;49.208;12.080;2022-07-09T14:24:28;3.78;;;1.05;;
39078;SDS011;24829;49.208;12.080;2022-07-09T14:26:53;2.80;;;0.75;;
39078;SDS011;24829;49.208;12.080;2022-07-09T14:29:19;2.72;;;1.00;;
39078;SDS011;24829;49.208;12.080;2022-07-09T14:31:45;1.55;;;0.90;;
39078;SDS011;24829;49.208;12.080;2022-07-09T14:34:10;6.50;;;1.92;;
39078;SDS011;24829;49.208;12.080;2022-07-09T14:36:36;4.10;;;1.50;;